sensor_id;sensor_type;location;lat;lon;timestamp;P1;durP1;ratioP1;P2;durP2;ratioP2
15256;SDS011;7731;50.720;6.912;2023-03-01T00:00:45;17.30;;;9.77;;
15256;SDS011;7731;50.720;6.912;2023-03-01T00:03:18;10.27;;;7.80;;
15256;SDS011;7731;50.720;6.912;2023-03-01T00:05:48;10.23;;;7.03;;
15256;SDS011;7731;50.720;6.912;2023-03-01T00:08:19;8.83;;;7.17;;
15256;SDS011;7731;50.720;6.912;2023-03-01T00:10:59;11.43;;;7.70;;
15256;SDS011;7731;50.720;6.912;2023-03-01T00:13:32;9.40;;;6.97;;
15256;SDS011;7731;50.720;6.912;2023-03-01T00:16:04;9.03;;;6.70;;
15256;SDS011;7731;50.720;6.912;2023-03-01T00:18:39;10.60;;;7.23;;
15256;SDS011;7731;50.720;6.912;2023-03-01T00:21:10;11.50;;;8.50;;
15256;SDS011;7731;50.720;6.912;2023-03-01T00:23:40;12.30;;;8.47;;
15256;SDS011;7731;50.720;6.912;2023-03-01T00:26:12;13.00;;;7.60;;
15256;SDS011;7731;50.720;6.912;2023-03-01T00:28:44;10.10;;;7.30;;
15256;SDS011;7731;50.720;6.912;2023-03-01T00:31:15;11.47;;;7.27;;
15256;SDS011;7731;50.720;6.912;2023-03-01T00:33:51;8.93;;;6.93;;
15256;SDS011;7731;50.720;6.912;2023-03-01T00:36:24;10.57;;;7.40;;
15256;SDS011;7731;50.720;6.912;2023-03-01T00:38:58;10.10;;;8.20;;
15256;SDS011;7731;50.720;6.912;2023-03-01T00:41:29;10.73;;;8.23;;
15256;SDS011;7731;50.720;6.912;2023-03-01T00:44:03;10.03;;;8.03;;
15256;SDS011;7731;50.720;6.912;2023-03-01T00:46:33;10.70;;;8.77;;
15256;SDS011;7731;50.720;6.912;2023-03-01T00:49:06;13.70;;;8.23;;
15256;SDS011;7731;50.720;6.912;2023-03-01T00:51:39;11.73;;;8.40;;
15256;SDS011;7731;50.720;6.912;2023-03-01T00:54:10;12.87;;;7.93;;
15256;SDS011;7731;50.720;6.912;2023-03-01T00:56:40;13.03;;;7.53;;
15256;SDS011;7731;50.720;6.912;2023-03-01T00:59:10;10.93;;;8.10;;
15256;SDS011;7731;50.720;6.912;2023-03-01T01:01:40;13.00;;;7.90;;
15256;SDS011;7731;50.720;6.912;2023-03-01T01:04:13;13.30;;;8.63;;
15256;SDS011;7731;50.720;6.912;2023-03-01T01:06:45;13.97;;;7.90;;
15256;SDS011;7731;50.720;6.912;2023-03-01T01:09:16;12.63;;;8.70;;
15256;SDS011;7731;50.720;6.912;2023-03-01T01:11:47;11.53;;;8.23;;
15256;SDS011;7731;50.720;6.912;2023-03-01T01:14:21;11.93;;;7.30;;
15256;SDS011;7731;50.720;6.912;2023-03-01T01:16:52;12.27;;;7.83;;
15256;SDS011;7731;50.720;6.912;2023-03-01T01:19:25;13.50;;;8.40;;
15256;SDS011;7731;50.720;6.912;2023-03-01T01:21:55;16.07;;;8.53;;
15256;SDS011;7731;50.720;6.912;2023-03-01T01:24:26;14.13;;;8.43;;
15256;SDS011;7731;50.720;6.912;2023-03-01T01:26:56;13.27;;;7.70;;
15256;SDS011;7731;50.720;6.912;2023-03-01T01:29:26;14.63;;;9.20;;
15256;SDS011;7731;50.720;6.912;2023-03-01T01:31:56;9.43;;;7.63;;
15256;SDS011;7731;50.720;6.912;2023-03-01T01:34:31;8.90;;;7.00;;
15256;SDS011;7731;50.720;6.912;2023-03-01T01:37:05;9.03;;;7.07;;
15256;SDS011;7731;50.720;6.912;2023-03-01T01:39:35;12.83;;;7.53;;
15256;SDS011;7731;50.720;6.912;2023-03-01T01:42:09;9.53;;;7.30;;
15256;SDS011;7731;50.720;6.912;2023-03-01T01:44:44;11.40;;;7.47;;
15256;SDS011;7731;50.720;6.912;2023-03-01T01:47:18;9.03;;;6.50;;
15256;SDS011;7731;50.720;6.912;2023-03-01T01:49:55;10.07;;;7.27;;
15256;SDS011;7731;50.720;6.912;2023-03-01T01:52:27;10.50;;;7.43;;
15256;SDS011;7731;50.720;6.912;2023-03-01T01:55:04;10.37;;;7.13;;
15256;SDS011;7731;50.720;6.912;2023-03-01T01:57:41;10.43;;;7.53;;
15256;SDS011;7731;50.720;6.912;2023-03-01T02:00:16;12.33;;;7.87;;
15256;SDS011;7731;50.720;6.912;2023-03-01T02:02:50;10.00;;;7.97;;
15256;SDS011;7731;50.720;6.912;2023-03-01T02:05:32;11.63;;;8.47;;
15256;SDS011;7731;50.720;6.912;2023-03-01T02:08:10;9.50;;;7.17;;
15256;SDS011;7731;50.720;6.912;2023-03-01T02:10:46;11.57;;;7.33;;
15256;SDS011;7731;50.720;6.912;2023-03-01T02:13:21;8.90;;;6.97;;
15256;SDS011;7731;50.720;6.912;2023-03-01T02:15:51;10.87;;;7.67;;
15256;SDS011;7731;50.720;6.912;2023-03-01T02:18:22;8.67;;;6.57;;
15256;SDS011;7731;50.720;6.912;2023-03-01T02:21:00;10.30;;;7.00;;
15256;SDS011;7731;50.720;6.912;2023-03-01T02:23:46;12.00;;;9.20;;
15256;SDS011;7731;50.720;6.912;2023-03-01T02:26:20;13.57;;;10.67;;
15256;SDS011;7731;50.720;6.912;2023-03-01T02:29:05;15.30;;;11.83;;
15256;SDS011;7731;50.720;6.912;2023-03-01T02:31:36;15.53;;;12.20;;
15256;SDS011;7731;50.720;6.912;2023-03-01T02:34:13;16.20;;;12.37;;
15256;SDS011;7731;50.720;6.912;2023-03-01T02:36:47;18.67;;;14.00;;
15256;SDS011;7731;50.720;6.912;2023-03-01T02:39:24;18.43;;;14.30;;
15256;SDS011;7731;50.720;6.912;2023-03-01T02:41:59;18.03;;;14.50;;
15256;SDS011;7731;50.720;6.912;2023-03-01T02:44:35;16.17;;;13.90;;
15256;SDS011;7731;50.720;6.912;2023-03-01T02:47:06;13.53;;;11.57;;
15256;SDS011;7731;50.720;6.912;2023-03-01T02:49:36;15.93;;;12.63;;
15256;SDS011;7731;50.720;6.912;2023-03-01T02:52:10;15.27;;;12.17;;
15256;SDS011;7731;50.720;6.912;2023-03-01T02:54:58;15.43;;;12.97;;
15256;SDS011;7731;50.720;6.912;2023-03-01T02:57:35;15.23;;;12.20;;
15256;SDS011;7731;50.720;6.912;2023-03-01T03:00:13;15.47;;;12.83;;
15256;SDS011;7731;50.720;6.912;2023-03-01T03:02:54;16.73;;;13.20;;
15256;SDS011;7731;50.720;6.912;2023-03-01T03:05:26;15.97;;;12.57;;
15256;SDS011;7731;50.720;6.912;2023-03-01T03:08:01;15.83;;;12.97;;
15256;SDS011;7731;50.720;6.912;2023-03-01T03:10:37;16.33;;;13.27;;
15256;SDS011;7731;50.720;6.912;2023-03-01T03:13:10;16.17;;;12.73;;
15256;SDS011;7731;50.720;6.912;2023-03-01T03:15:46;16.77;;;14.00;;
15256;SDS011;7731;50.720;6.912;2023-03-01T03:18:16;15.40;;;12.63;;
15256;SDS011;7731;50.720;6.912;2023-03-01T03:20:47;16.17;;;12.70;;
15256;SDS011;7731;50.720;6.912;2023-03-01T03:23:20;18.33;;;12.47;;
15256;SDS011;7731;50.720;6.912;2023-03-01T03:25:51;15.40;;;12.20;;
15256;SDS011;7731;50.720;6.912;2023-03-01T03:28:21;14.23;;;12.70;;
15256;SDS011;7731;50.720;6.912;2023-03-01T03:30:54;14.97;;;12.33;;
15256;SDS011;7731;50.720;6.912;2023-03-01T03:33:26;16.20;;;12.10;;
15256;SDS011;7731;50.720;6.912;2023-03-01T03:35:56;16.93;;;12.93;;
15256;SDS011;7731;50.720;6.912;2023-03-01T03:38:26;15.10;;;12.33;;
15256;SDS011;7731;50.720;6.912;2023-03-01T03:40:59;13.53;;;11.43;;
15256;SDS011;7731;50.720;6.912;2023-03-01T03:43:34;16.37;;;12.33;;
15256;SDS011;7731;50.720;6.912;2023-03-01T03:46:11;16.13;;;12.73;;
15256;SDS011;7731;50.720;6.912;2023-03-01T03:48:43;17.40;;;13.17;;
15256;SDS011;7731;50.720;6.912;2023-03-01T03:51:16;15.90;;;11.97;;
15256;SDS011;7731;50.720;6.912;2023-03-01T03:53:49;18.40;;;12.30;;
15256;SDS011;7731;50.720;6.912;2023-03-01T03:56:19;15.90;;;11.90;;
15256;SDS011;7731;50.720;6.912;2023-03-01T03:58:54;15.97;;;11.33;;
15256;SDS011;7731;50.720;6.912;2023-03-01T04:01:27;15.30;;;11.30;;
15256;SDS011;7731;50.720;6.912;2023-03-01T04:04:07;16.57;;;11.60;;
15256;SDS011;7731;50.720;6.912;2023-03-01T04:06:40;16.47;;;11.83;;
15256;SDS011;7731;50.720;6.912;2023-03-01T04:09:10;17.57;;;12.20;;
15256;SDS011;7731;50.720;6.912;2023-03-01T04:11:40;16.43;;;11.80;;
15256;SDS011;7731;50.720;6.912;2023-03-01T04:14:10;15.27;;;12.13;;
15256;SDS011;7731;50.720;6.912;2023-03-01T04:16:43;15.90;;;12.17;;
15256;SDS011;7731;50.720;6.912;2023-03-01T04:19:13;14.10;;;11.77;;
15256;SDS011;7731;50.720;6.912;2023-03-01T04:21:43;15.77;;;12.70;;
15256;SDS011;7731;50.720;6.912;2023-03-01T04:24:13;15.67;;;11.80;;
15256;SDS011;7731;50.720;6.912;2023-03-01T04:26:45;14.57;;;11.23;;
15256;SDS011;7731;50.720;6.912;2023-03-01T04:29:15;15.40;;;11.37;;
15256;SDS011;7731;50.720;6.912;2023-03-01T04:31:48;13.50;;;11.23;;
15256;SDS011;7731;50.720;6.912;2023-03-01T04:34:18;14.30;;;11.40;;
15256;SDS011;7731;50.720;6.912;2023-03-01T04:36:48;14.33;;;11.80;;
15256;SDS011;7731;50.720;6.912;2023-03-01T04:39:19;15.27;;;11.87;;
15256;SDS011;7731;50.720;6.912;2023-03-01T04:41:49;15.90;;;12.20;;
15256;SDS011;7731;50.720;6.912;2023-03-01T04:44:19;15.67;;;12.10;;
15256;SDS011;7731;50.720;6.912;2023-03-01T04:46:52;15.10;;;11.93;;
15256;SDS011;7731;50.720;6.912;2023-03-01T04:49:22;14.03;;;11.57;;
15256;SDS011;7731;50.720;6.912;2023-03-01T04:51:54;18.70;;;12.03;;
15256;SDS011;7731;50.720;6.912;2023-03-01T04:54:28;15.97;;;11.57;;
15256;SDS011;7731;50.720;6.912;2023-03-01T04:56:59;14.43;;;11.60;;
15256;SDS011;7731;50.720;6.912;2023-03-01T04:59:30;16.13;;;12.30;;
15256;SDS011;7731;50.720;6.912;2023-03-01T05:02:02;14.43;;;12.20;;
15256;SDS011;7731;50.720;6.912;2023-03-01T05:04:32;16.20;;;12.03;;
15256;SDS011;7731;50.720;6.912;2023-03-01T05:07:03;16.73;;;13.40;;
15256;SDS011;7731;50.720;6.912;2023-03-01T05:09:33;18.20;;;12.53;;
15256;SDS011;7731;50.720;6.912;2023-03-01T05:12:05;17.00;;;12.73;;
15256;SDS011;7731;50.720;6.912;2023-03-01T05:14:36;17.20;;;12.53;;
15256;SDS011;7731;50.720;6.912;2023-03-01T05:17:10;16.73;;;11.73;;
15256;SDS011;7731;50.720;6.912;2023-03-01T05:19:40;15.47;;;12.00;;
15256;SDS011;7731;50.720;6.912;2023-03-01T05:22:10;16.60;;;12.43;;
15256;SDS011;7731;50.720;6.912;2023-03-01T05:24:40;15.03;;;11.80;;
15256;SDS011;7731;50.720;6.912;2023-03-01T05:27:10;32.80;;;21.33;;
15256;SDS011;7731;50.720;6.912;2023-03-01T05:29:41;17.80;;;13.43;;
15256;SDS011;7731;50.720;6.912;2023-03-01T05:32:14;17.77;;;12.37;;
15256;SDS011;7731;50.720;6.912;2023-03-01T05:34:44;18.73;;;12.83;;
15256;SDS011;7731;50.720;6.912;2023-03-01T05:37:15;18.73;;;13.03;;
15256;SDS011;7731;50.720;6.912;2023-03-01T05:39:45;18.10;;;13.77;;
15256;SDS011;7731;50.720;6.912;2023-03-01T05:42:16;19.90;;;13.87;;
15256;SDS011;7731;50.720;6.912;2023-03-01T05:44:49;16.60;;;12.33;;
15256;SDS011;7731;50.720;6.912;2023-03-01T05:47:24;17.27;;;13.07;;
15256;SDS011;7731;50.720;6.912;2023-03-01T05:49:58;19.33;;;13.73;;
15256;SDS011;7731;50.720;6.912;2023-03-01T05:52:28;17.03;;;12.53;;
15256;SDS011;7731;50.720;6.912;2023-03-01T05:54:58;17.67;;;13.33;;
15256;SDS011;7731;50.720;6.912;2023-03-01T05:57:28;15.80;;;11.73;;
15256;SDS011;7731;50.720;6.912;2023-03-01T05:59:58;17.83;;;12.37;;
15256;SDS011;7731;50.720;6.912;2023-03-01T06:02:32;17.23;;;12.50;;
15256;SDS011;7731;50.720;6.912;2023-03-01T06:05:02;16.47;;;12.00;;
15256;SDS011;7731;50.720;6.912;2023-03-01T06:07:33;17.33;;;13.00;;
15256;SDS011;7731;50.720;6.912;2023-03-01T06:10:05;16.07;;;12.77;;
15256;SDS011;7731;50.720;6.912;2023-03-01T06:12:38;15.70;;;12.90;;
15256;SDS011;7731;50.720;6.912;2023-03-01T06:15:13;20.17;;;13.13;;
15256;SDS011;7731;50.720;6.912;2023-03-01T06:17:50;26.10;;;18.70;;
15256;SDS011;7731;50.720;6.912;2023-03-01T06:20:27;22.33;;;14.83;;
15256;SDS011;7731;50.720;6.912;2023-03-01T06:22:58;27.97;;;17.67;;
15256;SDS011;7731;50.720;6.912;2023-03-01T06:25:28;21.50;;;15.67;;
15256;SDS011;7731;50.720;6.912;2023-03-01T06:27:59;20.03;;;14.67;;
15256;SDS011;7731;50.720;6.912;2023-03-01T06:30:30;19.80;;;13.20;;
15256;SDS011;7731;50.720;6.912;2023-03-01T06:33:05;22.27;;;14.23;;
15256;SDS011;7731;50.720;6.912;2023-03-01T06:35:35;51.70;;;27.27;;
15256;SDS011;7731;50.720;6.912;2023-03-01T06:38:06;45.60;;;24.67;;
15256;SDS011;7731;50.720;6.912;2023-03-01T06:40:39;23.20;;;14.47;;
15256;SDS011;7731;50.720;6.912;2023-03-01T06:43:10;18.70;;;12.80;;
15256;SDS011;7731;50.720;6.912;2023-03-01T06:45:40;19.77;;;13.27;;
15256;SDS011;7731;50.720;6.912;2023-03-01T06:48:14;35.53;;;19.10;;
15256;SDS011;7731;50.720;6.912;2023-03-01T06:50:44;29.33;;;16.80;;
15256;SDS011;7731;50.720;6.912;2023-03-01T06:53:20;24.87;;;16.40;;
15256;SDS011;7731;50.720;6.912;2023-03-01T06:55:53;27.80;;;17.10;;
15256;SDS011;7731;50.720;6.912;2023-03-01T06:58:25;26.27;;;17.63;;
15256;SDS011;7731;50.720;6.912;2023-03-01T07:00:55;33.10;;;19.73;;
15256;SDS011;7731;50.720;6.912;2023-03-01T07:03:28;26.27;;;17.80;;
15256;SDS011;7731;50.720;6.912;2023-03-01T07:05:58;30.27;;;15.83;;
15256;SDS011;7731;50.720;6.912;2023-03-01T07:08:28;21.40;;;15.37;;
15256;SDS011;7731;50.720;6.912;2023-03-01T07:10:58;23.47;;;13.33;;
15256;SDS011;7731;50.720;6.912;2023-03-01T07:13:30;21.27;;;13.30;;
15256;SDS011;7731;50.720;6.912;2023-03-01T07:16:03;21.50;;;13.53;;
15256;SDS011;7731;50.720;6.912;2023-03-01T07:18:40;17.00;;;12.77;;
15256;SDS011;7731;50.720;6.912;2023-03-01T07:21:11;20.17;;;12.77;;
15256;SDS011;7731;50.720;6.912;2023-03-01T07:23:43;19.60;;;13.23;;
15256;SDS011;7731;50.720;6.912;2023-03-01T07:26:16;25.70;;;14.00;;
15256;SDS011;7731;50.720;6.912;2023-03-01T07:28:46;22.67;;;13.93;;
15256;SDS011;7731;50.720;6.912;2023-03-01T07:31:19;24.60;;;13.93;;
15256;SDS011;7731;50.720;6.912;2023-03-01T07:33:52;21.87;;;13.53;;
15256;SDS011;7731;50.720;6.912;2023-03-01T07:36:22;22.30;;;14.40;;
15256;SDS011;7731;50.720;6.912;2023-03-01T07:38:53;29.10;;;15.97;;
15256;SDS011;7731;50.720;6.912;2023-03-01T07:41:24;23.83;;;14.70;;
15256;SDS011;7731;50.720;6.912;2023-03-01T07:43:54;22.73;;;11.67;;
15256;SDS011;7731;50.720;6.912;2023-03-01T07:46:24;26.10;;;15.60;;
15256;SDS011;7731;50.720;6.912;2023-03-01T07:48:59;21.73;;;11.83;;
15256;SDS011;7731;50.720;6.912;2023-03-01T07:51:32;21.07;;;11.00;;
15256;SDS011;7731;50.720;6.912;2023-03-01T07:54:02;20.00;;;11.27;;
15256;SDS011;7731;50.720;6.912;2023-03-01T07:56:33;20.37;;;11.20;;
15256;SDS011;7731;50.720;6.912;2023-03-01T07:59:04;17.83;;;10.03;;
15256;SDS011;7731;50.720;6.912;2023-03-01T08:01:34;18.57;;;9.73;;
15256;SDS011;7731;50.720;6.912;2023-03-01T08:04:07;19.07;;;9.37;;
15256;SDS011;7731;50.720;6.912;2023-03-01T08:06:37;19.17;;;9.70;;
15256;SDS011;7731;50.720;6.912;2023-03-01T08:09:08;17.17;;;10.00;;
15256;SDS011;7731;50.720;6.912;2023-03-01T08:11:38;17.93;;;10.53;;
15256;SDS011;7731;50.720;6.912;2023-03-01T08:14:08;22.00;;;10.95;;
15256;SDS011;7731;50.720;6.912;2023-03-01T08:16:39;19.38;;;10.27;;
15256;SDS011;7731;50.720;6.912;2023-03-01T08:19:12;22.15;;;10.30;;
15256;SDS011;7731;50.720;6.912;2023-03-01T08:21:42;18.98;;;10.55;;
15256;SDS011;7731;50.720;6.912;2023-03-01T08:24:12;19.65;;;11.27;;
15256;SDS011;7731;50.720;6.912;2023-03-01T08:26:43;19.52;;;11.65;;
15256;SDS011;7731;50.720;6.912;2023-03-01T08:29:13;23.67;;;11.95;;
15256;SDS011;7731;50.720;6.912;2023-03-01T08:31:43;19.23;;;11.70;;
15256;SDS011;7731;50.720;6.912;2023-03-01T08:34:16;16.65;;;11.63;;
15256;SDS011;7731;50.720;6.912;2023-03-01T08:36:47;23.13;;;12.00;;
15256;SDS011;7731;50.720;6.912;2023-03-01T08:39:19;20.23;;;12.10;;
15256;SDS011;7731;50.720;6.912;2023-03-01T08:41:50;34.93;;;13.60;;
15256;SDS011;7731;50.720;6.912;2023-03-01T08:44:20;17.37;;;11.00;;
15256;SDS011;7731;50.720;6.912;2023-03-01T08:46:50;16.97;;;11.33;;
15256;SDS011;7731;50.720;6.912;2023-03-01T08:49:25;15.37;;;12.03;;
15256;SDS011;7731;50.720;6.912;2023-03-01T08:51:55;19.60;;;10.73;;
15256;SDS011;7731;50.720;6.912;2023-03-01T08:54:25;19.00;;;10.33;;
15256;SDS011;7731;50.720;6.912;2023-03-01T08:56:55;16.93;;;10.50;;
15256;SDS011;7731;50.720;6.912;2023-03-01T08:59:26;18.03;;;9.70;;
15256;SDS011;7731;50.720;6.912;2023-03-01T09:01:56;15.90;;;10.87;;
15256;SDS011;7731;50.720;6.912;2023-03-01T09:04:29;17.30;;;11.00;;
15256;SDS011;7731;50.720;6.912;2023-03-01T09:07:00;18.40;;;9.93;;
15256;SDS011;7731;50.720;6.912;2023-03-01T09:09:30;12.87;;;9.70;;
15256;SDS011;7731;50.720;6.912;2023-03-01T09:12:00;17.17;;;11.07;;
15256;SDS011;7731;50.720;6.912;2023-03-01T09:14:31;18.80;;;10.63;;
15256;SDS011;7731;50.720;6.912;2023-03-01T09:17:03;15.37;;;11.67;;
15256;SDS011;7731;50.720;6.912;2023-03-01T09:19:36;14.70;;;10.87;;
15256;SDS011;7731;50.720;6.912;2023-03-01T09:22:06;15.73;;;11.23;;
15256;SDS011;7731;50.720;6.912;2023-03-01T09:24:37;16.10;;;11.47;;
15256;SDS011;7731;50.720;6.912;2023-03-01T09:27:07;26.80;;;11.77;;
15256;SDS011;7731;50.720;6.912;2023-03-01T09:29:39;13.77;;;10.63;;
15256;SDS011;7731;50.720;6.912;2023-03-01T09:32:09;16.48;;;11.23;;
15256;SDS011;7731;50.720;6.912;2023-03-01T09:34:42;12.25;;;10.95;;
15256;SDS011;7731;50.720;6.912;2023-03-01T09:37:24;12.35;;;11.05;;
15256;SDS011;7731;50.720;6.912;2023-03-01T09:39:56;15.23;;;11.63;;
15256;SDS011;7731;50.720;6.912;2023-03-01T09:42:27;12.75;;;11.25;;
15256;SDS011;7731;50.720;6.912;2023-03-01T09:45:03;14.43;;;11.98;;
15256;SDS011;7731;50.720;6.912;2023-03-01T09:47:40;13.75;;;11.70;;
15256;SDS011;7731;50.720;6.912;2023-03-01T09:50:14;15.07;;;12.25;;
15256;SDS011;7731;50.720;6.912;2023-03-01T09:52:50;13.32;;;11.82;;
15256;SDS011;7731;50.720;6.912;2023-03-01T09:55:31;13.40;;;12.02;;
15256;SDS011;7731;50.720;6.912;2023-03-01T09:58:17;14.02;;;11.82;;
15256;SDS011;7731;50.720;6.912;2023-03-01T10:01:13;13.10;;;11.73;;
15256;SDS011;7731;50.720;6.912;2023-03-01T10:04:08;15.13;;;11.90;;
15256;SDS011;7731;50.720;6.912;2023-03-01T10:10:10;14.18;;;12.73;;
15256;SDS011;7731;50.720;6.912;2023-03-01T10:12:59;14.65;;;12.45;;
15256;SDS011;7731;50.720;6.912;2023-03-01T10:15:43;15.23;;;13.40;;
15256;SDS011;7731;50.720;6.912;2023-03-01T10:18:22;14.55;;;11.35;;
15256;SDS011;7731;50.720;6.912;2023-03-01T10:20:57;13.02;;;11.63;;
15256;SDS011;7731;50.720;6.912;2023-03-01T10:23:33;12.98;;;11.65;;
15256;SDS011;7731;50.720;6.912;2023-03-01T10:26:08;13.13;;;11.77;;
15256;SDS011;7731;50.720;6.912;2023-03-01T10:29:04;13.80;;;12.32;;
15256;SDS011;7731;50.720;6.912;2023-03-01T10:31:39;15.02;;;11.80;;
15256;SDS011;7731;50.720;6.912;2023-03-01T10:34:14;12.32;;;11.18;;
15256;SDS011;7731;50.720;6.912;2023-03-01T10:36:48;13.55;;;12.15;;
15256;SDS011;7731;50.720;6.912;2023-03-01T10:39:24;13.75;;;12.27;;
15256;SDS011;7731;50.720;6.912;2023-03-01T10:41:59;15.30;;;13.43;;
15256;SDS011;7731;50.720;6.912;2023-03-01T10:44:36;15.27;;;12.35;;
15256;SDS011;7731;50.720;6.912;2023-03-01T10:47:15;13.98;;;12.57;;
15256;SDS011;7731;50.720;6.912;2023-03-01T10:49:59;14.07;;;12.07;;
15256;SDS011;7731;50.720;6.912;2023-03-01T10:52:33;14.50;;;11.90;;
15256;SDS011;7731;50.720;6.912;2023-03-01T10:55:22;14.82;;;12.88;;
15256;SDS011;7731;50.720;6.912;2023-03-01T10:58:08;12.98;;;11.65;;
15256;SDS011;7731;50.720;6.912;2023-03-01T11:00:51;13.77;;;12.27;;
15256;SDS011;7731;50.720;6.912;2023-03-01T11:03:26;15.27;;;12.52;;
15256;SDS011;7731;50.720;6.912;2023-03-01T11:06:01;13.52;;;12.00;;
15256;SDS011;7731;50.720;6.912;2023-03-01T11:08:49;16.40;;;11.38;;
15256;SDS011;7731;50.720;6.912;2023-03-01T11:11:29;13.13;;;11.68;;
15256;SDS011;7731;50.720;6.912;2023-03-01T11:14:03;11.95;;;10.75;;
15256;SDS011;7731;50.720;6.912;2023-03-01T11:16:59;14.15;;;11.93;;
15256;SDS011;7731;50.720;6.912;2023-03-01T11:19:32;16.90;;;12.20;;
15256;SDS011;7731;50.720;6.912;2023-03-01T11:22:03;12.90;;;11.60;;
15256;SDS011;7731;50.720;6.912;2023-03-01T11:24:41;13.00;;;11.63;;
15256;SDS011;7731;50.720;6.912;2023-03-01T11:27:36;14.02;;;12.55;;
15256;SDS011;7731;50.720;6.912;2023-03-01T11:30:15;13.38;;;11.55;;
15256;SDS011;7731;50.720;6.912;2023-03-01T11:32:54;11.93;;;10.73;;
15256;SDS011;7731;50.720;6.912;2023-03-01T11:35:42;13.20;;;11.57;;
15256;SDS011;7731;50.720;6.912;2023-03-01T11:38:25;12.18;;;10.93;;
15256;SDS011;7731;50.720;6.912;2023-03-01T11:41:00;15.05;;;12.60;;
15256;SDS011;7731;50.720;6.912;2023-03-01T11:43:41;12.70;;;11.20;;
15256;SDS011;7731;50.720;6.912;2023-03-01T11:53:01;13.68;;;10.68;;
15256;SDS011;7731;50.720;6.912;2023-03-01T11:56:07;12.32;;;10.27;;
15256;SDS011;7731;50.720;6.912;2023-03-01T11:58:57;13.27;;;10.55;;
15256;SDS011;7731;50.720;6.912;2023-03-01T12:01:52;12.18;;;10.48;;
15256;SDS011;7731;50.720;6.912;2023-03-01T12:04:53;12.43;;;10.30;;
15256;SDS011;7731;50.720;6.912;2023-03-01T12:07:55;11.05;;;9.02;;
15256;SDS011;7731;50.720;6.912;2023-03-01T12:10:41;11.30;;;8.75;;
15256;SDS011;7731;50.720;6.912;2023-03-01T12:13:36;11.60;;;8.87;;
15256;SDS011;7731;50.720;6.912;2023-03-01T12:16:34;11.27;;;9.53;;
15256;SDS011;7731;50.720;6.912;2023-03-01T12:19:31;13.50;;;8.97;;
15256;SDS011;7731;50.720;6.912;2023-03-01T12:22:31;11.03;;;8.90;;
15256;SDS011;7731;50.720;6.912;2023-03-01T12:25:21;11.70;;;9.00;;
15256;SDS011;7731;50.720;6.912;2023-03-01T12:28:04;12.47;;;7.87;;
15256;SDS011;7731;50.720;6.912;2023-03-01T12:31:04;12.03;;;9.17;;
15256;SDS011;7731;50.720;6.912;2023-03-01T12:34:11;12.27;;;8.23;;
15256;SDS011;7731;50.720;6.912;2023-03-01T12:37:12;13.03;;;9.70;;
15256;SDS011;7731;50.720;6.912;2023-03-01T12:43:28;13.10;;;8.80;;
15256;SDS011;7731;50.720;6.912;2023-03-01T12:46:25;12.60;;;9.00;;
15256;SDS011;7731;50.720;6.912;2023-03-01T12:49:20;12.30;;;8.90;;
15256;SDS011;7731;50.720;6.912;2023-03-01T12:51:59;13.50;;;9.53;;
15256;SDS011;7731;50.720;6.912;2023-03-01T12:54:42;10.70;;;8.30;;
15256;SDS011;7731;50.720;6.912;2023-03-01T12:57:15;12.70;;;8.97;;
15256;SDS011;7731;50.720;6.912;2023-03-01T13:00:06;12.40;;;8.30;;
15256;SDS011;7731;50.720;6.912;2023-03-01T13:03:02;12.40;;;9.03;;
15256;SDS011;7731;50.720;6.912;2023-03-01T13:05:56;11.23;;;8.20;;
15256;SDS011;7731;50.720;6.912;2023-03-01T13:08:43;10.20;;;8.30;;
15256;SDS011;7731;50.720;6.912;2023-03-01T13:11:24;11.47;;;8.53;;
15256;SDS011;7731;50.720;6.912;2023-03-01T13:14:03;12.30;;;9.33;;
15256;SDS011;7731;50.720;6.912;2023-03-01T13:20:18;11.80;;;8.50;;
15256;SDS011;7731;50.720;6.912;2023-03-01T13:22:59;10.10;;;7.83;;
15256;SDS011;7731;50.720;6.912;2023-03-01T13:28:52;14.53;;;8.47;;
15256;SDS011;7731;50.720;6.912;2023-03-01T13:34:47;12.47;;;7.80;;
15256;SDS011;7731;50.720;6.912;2023-03-01T13:37:34;10.37;;;7.70;;
15256;SDS011;7731;50.720;6.912;2023-03-01T13:43:36;8.33;;;6.80;;
15256;SDS011;7731;50.720;6.912;2023-03-01T13:46:10;9.23;;;6.63;;
15256;SDS011;7731;50.720;6.912;2023-03-01T13:48:50;10.87;;;7.10;;
15256;SDS011;7731;50.720;6.912;2023-03-01T13:51:26;10.63;;;7.43;;
15256;SDS011;7731;50.720;6.912;2023-03-01T13:53:57;10.07;;;7.83;;
15256;SDS011;7731;50.720;6.912;2023-03-01T13:56:28;11.73;;;7.80;;
15256;SDS011;7731;50.720;6.912;2023-03-01T13:59:12;12.83;;;7.37;;
15256;SDS011;7731;50.720;6.912;2023-03-01T14:01:51;9.83;;;7.87;;
15256;SDS011;7731;50.720;6.912;2023-03-01T14:04:26;11.53;;;8.13;;
15256;SDS011;7731;50.720;6.912;2023-03-01T14:07:12;9.90;;;7.00;;
15256;SDS011;7731;50.720;6.912;2023-03-01T14:09:52;9.00;;;7.33;;
15256;SDS011;7731;50.720;6.912;2023-03-01T14:12:33;10.90;;;8.07;;
15256;SDS011;7731;50.720;6.912;2023-03-01T14:15:18;13.00;;;8.80;;
15256;SDS011;7731;50.720;6.912;2023-03-01T14:17:58;11.30;;;9.97;;
15256;SDS011;7731;50.720;6.912;2023-03-01T14:20:37;11.30;;;8.37;;
15256;SDS011;7731;50.720;6.912;2023-03-01T14:23:17;9.77;;;7.87;;
15256;SDS011;7731;50.720;6.912;2023-03-01T14:25:53;10.93;;;7.67;;
15256;SDS011;7731;50.720;6.912;2023-03-01T14:28:30;8.90;;;6.83;;
15256;SDS011;7731;50.720;6.912;2023-03-01T14:34:19;12.20;;;8.37;;
15256;SDS011;7731;50.720;6.912;2023-03-01T14:36:56;16.43;;;13.40;;
15256;SDS011;7731;50.720;6.912;2023-03-01T14:39:39;12.00;;;10.17;;
15256;SDS011;7731;50.720;6.912;2023-03-01T14:42:09;15.33;;;7.60;;
15256;SDS011;7731;50.720;6.912;2023-03-01T14:44:42;13.23;;;8.37;;
15256;SDS011;7731;50.720;6.912;2023-03-01T14:47:20;10.50;;;7.77;;
15256;SDS011;7731;50.720;6.912;2023-03-01T14:49:58;11.33;;;8.57;;
15256;SDS011;7731;50.720;6.912;2023-03-01T14:52:37;9.87;;;7.33;;
15256;SDS011;7731;50.720;6.912;2023-03-01T14:55:13;9.30;;;7.07;;
15256;SDS011;7731;50.720;6.912;2023-03-01T14:57:48;10.27;;;8.13;;
15256;SDS011;7731;50.720;6.912;2023-03-01T15:00:21;16.70;;;7.87;;
15256;SDS011;7731;50.720;6.912;2023-03-01T15:02:56;15.37;;;8.07;;
15256;SDS011;7731;50.720;6.912;2023-03-01T15:05:36;10.03;;;7.43;;
15256;SDS011;7731;50.720;6.912;2023-03-01T15:08:11;9.90;;;7.30;;
15256;SDS011;7731;50.720;6.912;2023-03-01T15:10:57;14.77;;;9.60;;
15256;SDS011;7731;50.720;6.912;2023-03-01T15:13:34;14.67;;;11.50;;
15256;SDS011;7731;50.720;6.912;2023-03-01T15:16:06;15.43;;;10.27;;
15256;SDS011;7731;50.720;6.912;2023-03-01T15:18:43;20.30;;;13.50;;
15256;SDS011;7731;50.720;6.912;2023-03-01T15:21:21;11.03;;;9.13;;
15256;SDS011;7731;50.720;6.912;2023-03-01T15:24:05;10.13;;;7.87;;
15256;SDS011;7731;50.720;6.912;2023-03-01T15:26:50;11.00;;;7.90;;
15256;SDS011;7731;50.720;6.912;2023-03-01T15:29:27;8.37;;;7.33;;
15256;SDS011;7731;50.720;6.912;2023-03-01T15:32:25;11.07;;;7.10;;
15256;SDS011;7731;50.720;6.912;2023-03-01T15:34:59;9.30;;;6.47;;
15256;SDS011;7731;50.720;6.912;2023-03-01T15:38:23;11.23;;;7.23;;
15256;SDS011;7731;50.720;6.912;2023-03-01T15:43:57;10.03;;;7.33;;
15256;SDS011;7731;50.720;6.912;2023-03-01T15:46:30;9.90;;;7.40;;
15256;SDS011;7731;50.720;6.912;2023-03-01T15:49:04;8.53;;;6.57;;
15256;SDS011;7731;50.720;6.912;2023-03-01T15:51:56;10.33;;;6.60;;
15256;SDS011;7731;50.720;6.912;2023-03-01T15:54:26;11.10;;;6.93;;
15256;SDS011;7731;50.720;6.912;2023-03-01T15:57:01;8.13;;;6.33;;
15256;SDS011;7731;50.720;6.912;2023-03-01T15:59:31;8.90;;;5.90;;
15256;SDS011;7731;50.720;6.912;2023-03-01T16:02:01;9.97;;;7.27;;
15256;SDS011;7731;50.720;6.912;2023-03-01T16:04:41;12.07;;;6.97;;